Time;durP1;ratioP1;P1;durP2;ratioP2;P2;SDS_P1;SDS_P2;PMS_P1;PMS_P2;Temp;Humidity;BMP_temperature;BMP_pressure;BME280_temperature;BME280_humidity;BME280_pressure;Samples;Min_cycle;Max_cycle;Signal;HPM_P1;HPM_P2
2022/12/21 00:01:29;;;;;;;97.85;38.30;;;;;;;-4.93;84.28;98580.20;1718690;83;21053;-72
2022/12/21 00:04:00;;;;;;;100.70;39.80;;;;;;;-4.91;84.25;98570.41;1715706;81;20989;-72
2022/12/21 00:06:30;;;;;;;101.50;40.95;;;;;;;-4.93;83.93;98563.41;1748331;82;21193;-72
2022/12/21 00:08:59;;;;;;;101.87;42.48;;;;;;;-4.92;84.14;98571.62;1738600;81;21037;-72
2022/12/21 00:11:28;;;;;;;110.03;42.95;;;;;;;-4.92;84.06;98576.80;1735137;82;21002;-71
2022/12/21 00:13:58;;;;;;;105.30;40.45;;;;;;;-4.94;83.98;98565.09;1755159;82;20995;-72
2022/12/21 00:16:28;;;;;;;107.45;40.52;;;;;;;-4.93;84.08;98568.57;1748057;81;21067;-70
2022/12/21 00:18:56;;;;;;;96.12;41.88;;;;;;;-4.91;84.12;98557.88;1740695;81;20990;-72
2022/12/21 00:21:28;;;;;;;92.75;40.35;;;;;;;-4.91;84.10;98561.75;1753729;81;21151;-71
2022/12/21 00:23:59;;;;;;;101.92;41.60;;;;;;;-4.88;84.16;98556.72;1753024;82;21003;-70
2022/12/21 00:26:29;;;;;;;93.90;40.98;;;;;;;-4.85;84.21;98561.13;1755133;80;20944;-71
2022/12/21 00:28:58;;;;;;;99.42;41.23;;;;;;;-4.85;83.91;98553.37;1743925;82;21042;-71
2022/12/21 00:31:35;;;;;;;103.83;41.13;;;;;;;-4.87;84.04;98552.02;1702561;82;21003;-71
2022/12/21 00:34:02;;;;;;;103.20;40.15;;;;;;;-4.89;84.01;98551.08;1786031;79;21008;-71
2022/12/21 00:36:32;;;;;;;96.50;38.58;;;;;;;-4.81;84.48;98557.42;1775774;80;21043;-72
2022/12/21 00:39:00;;;;;;;82.30;36.83;;;;;;;-4.81;84.11;98560.44;1761695;79;21011;-71
2022/12/21 00:41:27;;;;;;;91.20;38.38;;;;;;;-4.86;84.03;98567.99;1780195;80;21321;-72
2022/12/21 00:43:55;;;;;;;88.12;37.78;;;;;;;-4.81;84.51;98564.32;1790586;80;21009;-71
2022/12/21 00:46:26;;;;;;;88.60;38.85;;;;;;;-4.77;84.35;98563.62;1774212;80;21480;-72
2022/12/21 00:48:56;;;;;;;89.47;38.42;;;;;;;-4.72;84.36;98552.16;1780527;79;20933;-72
2022/12/21 00:51:25;;;;;;;83.80;36.58;;;;;;;-4.73;84.11;98551.30;1757591;79;21433;-71
2022/12/21 00:53:54;;;;;;;84.90;37.05;;;;;;;-4.73;84.02;98556.47;1785852;80;20980;-71
2022/12/21 00:56:21;;;;;;;77.72;35.28;;;;;;;-4.74;84.18;98541.75;1765630;79;21064;-71
2022/12/21 00:58:48;;;;;;;76.25;33.10;;;;;;;-4.73;84.13;98538.37;1767612;79;20994;-71
2022/12/21 01:01:19;;;;;;;73.50;32.48;;;;;;;-4.80;84.04;98533.36;1789451;80;21434;-72
2022/12/21 01:03:46;;;;;;;65.30;29.40;;;;;;;-4.83;83.89;98532.33;1768298;79;21360;-72
2022/12/21 01:06:21;;;;;;;66.10;29.63;;;;;;;-4.83;84.00;98520.69;1791298;80;21017;-71
2022/12/21 01:08:47;;;;;;;67.50;30.30;;;;;;;-4.85;83.91;98521.05;1788661;80;21025;-73
2022/12/21 01:11:18;;;;;;;67.22;30.85;;;;;;;-4.85;84.00;98514.19;1785070;79;20998;-71
2022/12/21 01:13:47;;;;;;;64.27;29.82;;;;;;;-4.83;84.34;98516.41;1773493;80;21016;-72
2022/12/21 01:16:18;;;;;;;71.55;29.02;;;;;;;-4.76;84.63;98521.42;1771910;79;20986;-72
2022/12/21 01:18:46;;;;;;;63.70;28.92;;;;;;;-4.77;84.46;98533.45;1765692;80;21459;-72
2022/12/21 01:21:23;;;;;;;63.78;28.20;;;;;;;-4.75;84.60;98522.28;1783376;79;21420;-72
2022/12/21 01:23:51;;;;;;;60.08;27.75;;;;;;;-4.72;84.41;98517.25;1775217;80;20947;-72
2022/12/21 01:26:18;;;;;;;68.12;29.67;;;;;;;-4.73;84.30;98508.63;1800056;79;21021;-71
2022/12/21 01:28:45;;;;;;;67.90;31.52;;;;;;;-4.70;84.43;98515.20;1762944;80;21038;-72
2022/12/21 01:31:13;;;;;;;73.12;31.62;;;;;;;-4.72;84.15;98508.20;1773243;79;21024;-72
2022/12/21 01:33:42;;;;;;;78.22;35.25;;;;;;;-4.78;83.73;98507.13;1765263;81;21376;-72
2022/12/21 01:36:13;;;;;;;72.85;33.63;;;;;;;-4.80;83.91;98502.33;1774719;80;20971;-72
2022/12/21 01:38:42;;;;;;;77.42;34.50;;;;;;;-4.79;83.84;98503.19;1775059;79;21034;-72
2022/12/21 01:41:16;;;;;;;74.07;32.35;;;;;;;-4.81;83.84;98498.38;1765198;79;20988;-70
2022/12/21 01:43:48;;;;;;;75.78;32.67;;;;;;;-4.80;84.00;98499.74;1772641;79;20937;-71
2022/12/21 01:46:35;;;;;;;70.47;32.60;;;;;;;-4.77;83.79;98492.08;1782813;79;21021;-72
2022/12/21 01:49:27;;;;;;;74.60;33.08;;;;;;;-4.82;83.95;98486.28;1744630;81;20989;-71
2022/12/21 01:52:05;;;;;;;72.53;33.00;;;;;;;-4.80;84.01;98481.64;1772011;80;20983;-71
2022/12/21 01:54:37;;;;;;;78.60;35.58;;;;;;;-4.75;83.97;98479.22;1759472;79;20985;-71
2022/12/21 01:57:07;;;;;;;75.97;33.45;;;;;;;-4.78;83.75;98486.84;1760612;79;20978;-71
2022/12/21 01:59:41;;;;;;;72.32;33.63;;;;;;;-4.80;83.69;98481.64;1755854;81;20957;-71
2022/12/21 02:02:13;;;;;;;74.10;33.18;;;;;;;-4.86;83.47;98473.62;1766635;79;20989;-71
2022/12/21 02:04:41;;;;;;;69.53;32.90;;;;;;;-4.81;83.95;98479.84;1739647;79;20988;-71
2022/12/21 02:07:08;;;;;;;81.65;33.65;;;;;;;-4.79;83.88;98473.45;1765807;81;21016;-71
2022/12/21 02:09:36;;;;;;;85.10;37.17;;;;;;;-4.78;83.86;98469.64;1769626;80;21395;-71
2022/12/21 02:12:06;;;;;;;78.10;35.25;;;;;;;-4.73;84.17;98465.95;1749926;80;21422;-71
2022/12/21 02:14:38;;;;;;;81.72;35.92;;;;;;;-4.66;84.09;98470.92;1775769;80;21022;-71
2022/12/21 02:17:32;;;;;;;77.92;34.98;;;;;;;-4.65;83.90;98470.13;1764328;79;20986;-70
2022/12/21 02:20:28;;;;;;;75.52;34.55;;;;;;;-4.67;83.76;98464.89;1774963;79;21400;-71
2022/12/21 02:23:17;;;;;;;81.45;36.70;;;;;;;-4.70;83.77;98452.27;1759699;79;20922;-71
2022/12/21 02:26:05;;;;;;;72.72;33.60;;;;;;;-4.69;83.97;98448.41;1735246;81;21021;-71
2022/12/21 02:29:12;;;;;;;81.75;34.10;;;;;;;-4.72;83.79;98457.77;1764785;79;21033;-71
2022/12/21 02:31:47;;;;;;;76.47;34.90;;;;;;;-4.75;83.96;98466.28;1779394;80;21028;-71
2022/12/21 02:34:26;;;;;;;75.52;32.75;;;;;;;-4.78;84.05;98450.24;1775178;79;20996;-71
2022/12/21 02:37:27;;;;;;;75.85;33.53;;;;;;;-4.76;83.96;98454.19;1761633;81;21418;-71
2022/12/21 02:40:10;;;;;;;80.55;33.58;;;;;;;-4.74;83.90;98446.50;1756863;79;20976;-71
2022/12/21 02:45:59;;;;;;;73.02;33.23;;;;;;;-4.74;83.89;98447.36;1776050;79;20941;-71
2022/12/21 02:48:34;;;;;;;84.95;35.00;;;;;;;-4.70;83.82;98450.97;1768636;79;21032;-71
2022/12/21 02:51:05;;;;;;;72.30;32.93;;;;;;;-4.72;83.62;98450.01;1755606;80;20979;-71
2022/12/21 02:53:36;;;;;;;80.07;34.58;;;;;;;-4.72;83.86;98445.73;1776911;79;20975;-71
2022/12/21 02:56:03;;;;;;;80.10;33.85;;;;;;;-4.68;83.96;98447.62;1779443;79;21039;-71
2022/12/21 02:58:30;;;;;;;70.37;32.70;;;;;;;-4.67;83.71;98444.60;1766161;80;21463;-71
2022/12/21 03:01:26;;;;;;;78.10;32.63;;;;;;;-4.66;83.84;98444.66;1774375;80;21340;-71
2022/12/21 03:04:10;;;;;;;70.67;30.57;;;;;;;-4.65;83.94;98445.13;1776822;80;21114;-71
2022/12/21 03:07:10;;;;;;;75.20;30.97;;;;;;;-4.65;83.79;98441.67;1756025;81;21434;-71
2022/12/21 03:10:06;;;;;;;75.10;31.27;;;;;;;-4.64;83.86;98432.66;1779361;79;21430;-71
2022/12/21 03:13:10;;;;;;;69.25;31.68;;;;;;;-4.61;83.81;98424.13;1752183;79;20986;-70
2022/12/21 03:16:05;;;;;;;70.65;30.32;;;;;;;-4.61;83.77;98425.86;1725560;81;21449;-71
2022/12/21 03:18:46;;;;;;;63.45;30.08;;;;;;;-4.60;83.86;98421.14;1729957;79;20937;-71
2022/12/21 03:21:39;;;;;;;66.55;31.93;;;;;;;-4.59;83.67;98415.14;1754693;79;21012;-71
2022/12/21 03:24:23;;;;;;;74.62;31.33;;;;;;;-4.62;83.65;98409.88;1757189;79;20993;-70
2022/12/21 03:26:57;;;;;;;66.28;29.65;;;;;;;-4.58;83.92;98417.80;1751586;81;21039;-71
2022/12/21 03:29:29;;;;;;;82.22;31.33;;;;;;;-4.58;83.75;98412.62;1732877;79;21424;-71
2022/12/21 03:32:15;;;;;;;73.17;31.52;;;;;;;-4.63;83.43;98418.03;1748545;79;20983;-71
2022/12/21 03:34:48;;;;;;;84.97;36.08;;;;;;;-4.66;83.56;98416.22;1754680;81;21064;-72
2022/12/21 03:37:25;;;;;;;85.32;37.25;;;;;;;-4.66;83.66;98412.33;1739585;79;20964;-71
2022/12/21 03:40:12;;;;;;;81.47;34.85;;;;;;;-4.66;83.68;98403.68;1745058;81;21045;-72
2022/12/21 03:42:44;;;;;;;82.30;36.10;;;;;;;-4.66;83.68;98395.52;1752468;82;20975;-71
2022/12/21 03:45:16;;;;;;;72.40;33.85;;;;;;;-4.68;83.51;98395.89;1756408;79;21001;-72
2022/12/21 03:47:51;;;;;;;83.40;36.55;;;;;;;-4.71;83.46;98396.16;1749345;81;21004;-72
2022/12/21 03:50:22;;;;;;;76.62;33.78;;;;;;;-4.73;83.42;98395.23;1739234;81;21032;-72
2022/12/21 03:52:56;;;;;;;73.87;32.93;;;;;;;-4.81;83.18;98391.07;1745816;79;21761;-72
2022/12/21 03:55:30;;;;;;;68.07;30.02;;;;;;;-4.82;83.39;98386.73;1740189;79;21440;-72
2022/12/21 03:57:57;;;;;;;;;;;;;;;-4.86;83.35;98383.55;1764016;79;21006;-71
2022/12/21 04:00:24;;;;;;;;;;;;;;;-4.90;83.57;98387.30;1741160;79;20102;-71
2022/12/21 04:02:56;;;;;;;;;;;;;;;-4.92;83.62;98376.03;1761519;79;20564;-72
2022/12/21 04:05:26;;;;;;;;;;;;;;;-4.91;83.89;98384.25;1740798;79;20337;-71
2022/12/21 04:07:53;;;;;;;;;;;;;;;-4.90;83.71;98385.14;1752069;79;20090;-70
2022/12/21 04:10:21;;;;;;;;;;;;;;;-4.90;83.79;98377.39;1744358;79;20343;-70
2022/12/21 04:12:47;;;;;;;;;;;;;;;-4.90;83.80;98370.50;1742501;79;20153;-71
2022/12/21 04:15:19;;;;;;;;;;;;;;;-4.87;83.91;98367.14;1775677;79;20117;-71
2022/12/21 04:17:48;;;;;;;;;;;;;;;-4.84;83.98;98367.27;1759667;80;20119;-72
2022/12/21 04:20:19;;;;;;;;;;;;;;;-4.79;84.11;98371.31;1756860;79;20123;-72
2022/12/21 04:28:26;;;;;;;;;;;;;;;-4.73;84.21;98362.52;1766700;80;20104;-70
2022/12/21 04:30:52;;;;;;;;;;;;;;;-4.74;84.37;98363.74;1774361;79;20202;-70
2022/12/21 04:33:20;;;;;;;;;;;;;;;-4.73;83.96;98358.62;1768952;79;20353;-71
2022/12/21 04:38:35;;;;;;;;;;;;;;;-4.78;83.56;98355.86;1784110;79;20313;-71
2022/12/21 04:41:02;;;;;;;;;;;;;;;-4.80;83.63;98351.45;1756631;79;20361;-71
2022/12/21 04:43:29;;;;;;;;;;;;;;;-4.81;84.03;98342.80;1784486;80;20089;-72
2022/12/21 04:46:03;;;;;;;;;;;;;;;-4.78;84.12;98347.20;1801582;79;20329;-72
2022/12/21 04:48:30;;;;;;;;;;;;;;;-4.75;84.28;98348.63;1755607;79;20084;-72
2022/12/21 04:51:06;;;;;;;;;;;;;;;-4.73;84.18;98348.69;1781282;80;20113;-72
2022/12/21 04:53:32;;;;;;;;;;;;;;;-4.74;83.85;98343.91;1752912;79;20160;-72
2022/12/21 04:55:59;;;;;;;;;;;;;;;-4.75;84.01;98336.09;1741925;81;20082;-72
2022/12/21 04:58:25;;;;;;;;;;;;;;;-4.78;83.96;98344.63;1781355;79;20329;-72
2022/12/21 05:00:51;;;;;;;;;;;;;;;-4.82;83.81;98348.80;1792814;79;20116;-72
2022/12/21 05:03:19;;;;;;;;;;;;;;;-4.84;83.92;98354.73;1784251;80;20101;-72
2022/12/21 05:05:46;;;;;;;;;;;;;;;-4.87;83.92;98340.00;1768583;79;20130;-72
2022/12/21 05:08:12;;;;;;;;;;;;;;;-4.85;84.33;98343.54;1757107;80;20337;-73
2022/12/21 05:10:40;;;;;;;;;;;;;;;-4.80;84.25;98331.66;1778026;81;20105;-73
2022/12/21 05:13:06;;;;;;;;;;;;;;;-4.78;83.94;98334.28;1758927;79;20317;-72
2022/12/21 05:15:39;;;;;;;;;;;;;;;-4.86;83.90;98332.70;1754615;79;20083;-73
2022/12/21 05:18:05;;;;;;;;;;;;;;;-4.91;83.78;98329.06;1753213;79;20107;-73
2022/12/21 05:20:31;;;;;;;;;;;;;;;-4.92;83.87;98327.31;1768895;81;20124;-72
2022/12/21 05:22:58;;;;;;;;;;;;;;;-4.95;83.67;98328.47;1760857;81;20073;-72
2022/12/21 05:25:24;;;;;;;;;;;;;;;-4.95;83.94;98320.72;1763231;79;20099;-72
2022/12/21 05:27:50;;;;;;;;;;;;;;;-4.94;84.12;98314.32;1781889;79;20112;-72
2022/12/21 05:30:16;;;;;;;;;;;;;;;-4.91;83.93;98319.62;1788754;79;20124;-73
2022/12/21 05:32:43;;;;;;;;;;;;;;;-4.93;83.85;98330.73;1762858;79;20093;-72
2022/12/21 05:35:09;;;;;;;;;;;;;;;-4.92;83.76;98323.43;1768299;80;20087;-72
2022/12/21 05:37:35;;;;;;;;;;;;;;;-4.93;83.92;98329.03;1773589;79;20092;-72
2022/12/21 05:40:02;;;;;;;;;;;;;;;-4.91;84.15;98327.77;1767844;79;20133;-72
2022/12/21 05:42:28;;;;;;;;;;;;;;;-4.87;84.02;98322.33;1764086;79;20377;-72
2022/12/21 05:44:55;;;;;;;;;;;;;;;-4.84;83.98;98319.44;1786347;79;20081;-72
2022/12/21 05:47:21;;;;;;;;;;;;;;;-4.86;83.67;98317.63;1753869;79;20113;-72
2022/12/21 05:49:47;;;;;;;;;;;;;;;-4.90;83.54;98315.34;1762726;79;20087;-72
2022/12/21 05:52:14;;;;;;;;;;;;;;;-4.91;83.60;98314.84;1758406;79;20112;-73
2022/12/21 05:54:40;;;;;;;;;;;;;;;-4.92;83.73;98314.38;1756214;81;20139;-72
2022/12/21 05:57:06;;;;;;;;;;;;;;;-4.92;83.86;98303.64;1772921;79;20186;-72
2022/12/21 05:59:32;;;;;;;;;;;;;;;-4.89;83.78;98314.51;1767975;79;20144;-72
2022/12/21 06:01:58;;;;;;;;;;;;;;;-4.89;83.87;98319.68;1779386;79;20085;-72
2022/12/21 06:04:24;;;;;;;;;;;;;;;-4.84;83.82;98325.01;1784691;79;20127;-72
2022/12/21 06:06:51;;;;;;;;;;;;;;;-4.83;84.02;98334.12;1780644;79;20412;-71
2022/12/21 06:09:17;;;;;;;;;;;;;;;-4.80;83.95;98326.89;1783221;80;20085;-72
2022/12/21 06:11:43;;;;;;;;;;;;;;;-4.79;84.01;98329.94;1755962;80;20094;-71
2022/12/21 06:14:09;;;;;;;;;;;;;;;-4.76;83.82;98335.23;1771457;79;20077;-72
2022/12/21 06:16:36;;;;;;;;;;;;;;;-4.77;83.60;98338.65;1777525;79;20127;-72
2022/12/21 06:19:02;;;;;;;;;;;;;;;-4.78;83.39;98334.28;1752004;79;20094;-72
2022/12/21 06:21:29;;;;;;;;;;;;;;;-4.83;83.32;98334.12;1777783;81;20341;-71
2022/12/21 06:23:55;;;;;;;;;;;;;;;-4.84;83.42;98337.53;1763484;81;20103;-71
2022/12/21 06:26:21;;;;;;;;;;;;;;;-4.91;83.48;98339.01;1753975;79;20157;-72
2022/12/21 06:28:50;;;;;;;;;;;;;;;-4.88;83.85;98333.07;1766955;81;20123;-71
2022/12/21 06:31:16;;;;;;;;;;;;;;;-4.88;83.63;98339.53;1781604;81;20152;-72
2022/12/21 06:33:43;;;;;;;;;;;;;;;-4.85;83.67;98337.08;1784161;80;20313;-72
2022/12/21 06:36:10;;;;;;;;;;;;;;;-4.88;83.32;98332.17;1779564;79;20120;-72
2022/12/21 06:38:37;;;;;;;;;;;;;;;-4.93;83.26;98333.31;1783623;79;20140;-72
2022/12/21 06:41:09;;;;;;;;;;;;;;;-4.91;83.56;98332.94;1756159;79;20356;-72
2022/12/21 06:43:37;;;;;;;;;;;;;;;-4.86;83.47;98338.30;1797285;79;20090;-72
2022/12/21 06:46:08;;;;;;;;;;;;;;;-4.85;83.67;98335.78;1776907;81;20097;-72
2022/12/21 06:48:36;;;;;;;;;;;;;;;-4.81;83.55;98341.94;1751263;79;20359;-72
2022/12/21 06:51:06;;;;;;;;;;;;;;;-4.83;83.50;98338.00;1768078;79;20174;-72
2022/12/21 06:53:34;;;;;;;;;;;;;;;-4.83;83.59;98338.00;1776151;80;20095;-71
2022/12/21 06:56:07;;;;;;;;;;;;;;;-4.79;83.49;98341.57;1759811;79;20239;-70
2022/12/21 06:58:34;;;;;;;;;;;;;;;-4.74;83.67;98344.34;1777221;79;20099;-71
2022/12/21 07:01:09;;;;;;;;;;;;;;;-4.66;83.76;98349.37;1769234;80;20113;-71
2022/12/21 07:03:37;;;;;;;;;;;;;;;-4.66;83.42;98351.55;1777184;79;20412;-71
2022/12/21 07:06:04;;;;;;;;;;;;;;;-4.65;83.43;98344.25;1784330;79;20120;-71
2022/12/21 07:08:31;;;;;;;;;;;;;;;-4.67;83.35;98350.20;1781154;79;20603;-71
2022/12/21 07:10:59;;;;;;;;;;;;;;;-4.68;83.32;98339.39;1781220;79;20085;-71
2022/12/21 07:13:26;;;;;;;;;;;;;;;-4.67;83.13;98337.27;1765160;79;20092;-71
2022/12/21 07:15:53;;;;;;;;;;;;;;;-4.69;83.23;98337.20;1765024;80;20319;-71
2022/12/21 07:18:20;;;;;;;;;;;;;;;-4.66;83.41;98329.57;1767999;80;20353;-71
2022/12/21 07:20:47;;;;;;;;;;;;;;;-4.60;83.40;98333.20;1768492;80;20181;-71
2022/12/21 07:23:13;;;;;;;;;;;;;;;-4.61;83.23;98324.55;1788687;80;20085;-71
2022/12/21 07:25:40;;;;;;;;;;;;;;;-4.56;83.43;98325.63;1788689;79;20073;-72
2022/12/21 07:28:06;;;;;;;;;;;;;;;-4.49;83.27;98331.87;1786638;79;20123;-72
2022/12/21 07:30:32;;;;;;;;;;;;;;;-4.47;83.15;98332.83;1788562;78;20092;-71
2022/12/21 07:32:58;;;;;;;;;;;;;;;-4.42;83.21;98337.75;1788835;80;20155;-72
2022/12/21 07:35:25;;;;;;;;;;;;;;;-4.35;83.26;98325.02;1789293;79;20093;-72
2022/12/21 07:37:51;;;;;;;;;;;;;;;-4.30;83.12;98329.55;1757637;80;20149;-72
2022/12/21 07:40:18;;;;;;;;;;;;;;;-4.26;82.92;98324.95;1778890;80;20152;-72
2022/12/21 07:42:46;;;;;;;;;;;;;;;-4.18;83.18;98328.20;1788931;80;20097;-72
2022/12/21 07:45:15;;;;;;;;;;;;;;;-4.12;82.98;98319.34;1786394;80;20358;-72
2022/12/21 07:47:43;;;;;;;;;;;;;;;-4.05;83.01;98321.73;1757824;80;20320;-72
2022/12/21 07:50:10;;;;;;;;;;;;;;;-4.00;83.04;98312.00;1794071;79;20136;-72
2022/12/21 07:52:36;;;;;;;;;;;;;;;-3.93;82.85;98314.79;1769765;80;20120;-71
2022/12/21 07:55:02;;;;;;;;;;;;;;;-4.00;82.23;98321.47;1768415;79;20102;-71
2022/12/21 07:57:29;;;;;;;;;;;;;;;-4.07;82.19;98328.14;1789043;80;20342;-72
2022/12/21 07:59:55;;;;;;;;;;;;;;;-4.06;82.54;98317.38;1767780;79;20087;-72
2022/12/21 08:02:21;;;;;;;;;;;;;;;-4.06;82.46;98318.28;1788809;80;20420;-72
2022/12/21 08:04:47;;;;;;;;;;;;;;;-4.04;82.66;98315.72;1791974;79;20088;-72
2022/12/21 08:07:14;;;;;;;;;;;;;;;-4.01;82.80;98309.36;1770247;79;20122;-72
2022/12/21 08:09:40;;;;;;;;;;;;;;;-3.93;83.03;98307.02;1792532;79;20120;-72
2022/12/21 08:12:06;;;;;;;;;;;;;;;-3.84;83.00;98309.92;1787563;80;20168;-72
2022/12/21 08:14:33;;;;;;;;;;;;;;;-3.79;82.82;98306.20;1767783;79;20107;-72
2022/12/21 08:16:59;;;;;;;;;;;;;;;-3.73;82.71;98299.92;1780175;79;20343;-72
2022/12/21 08:19:26;;;;;;;;;;;;;;;-3.68;82.71;98302.64;1779297;78;20149;-72
2022/12/21 08:21:52;;;;;;;;;;;;;;;-3.63;83.00;98301.08;1789990;78;20165;-72
2022/12/21 08:24:18;;;;;;;;;;;;;;;-3.56;82.92;98314.70;1773190;79;20143;-72
2022/12/21 08:26:44;;;;;;;;;;;;;;;-3.54;82.65;98300.52;1781848;80;20086;-72
2022/12/21 08:29:13;;;;;;;;;;;;;;;-3.52;82.50;98306.61;1790365;79;20328;-72
2022/12/21 08:31:40;;;;;;;;;;;;;;;-3.51;82.35;98309.25;1796083;79;20140;-72
2022/12/21 08:34:06;;;;;;;;;;;;;;;-3.51;82.40;98295.41;1789761;79;20425;-72
2022/12/21 08:36:32;;;;;;;;;;;;;;;-3.48;82.39;98296.38;1782595;79;20093;-72
2022/12/21 08:39:00;;;;;;;;;;;;;;;-3.44;82.11;98292.19;1789566;78;20360;-72
2022/12/21 08:41:26;;;;;;;;;;;;;;;-3.40;82.26;98289.27;1796302;79;20152;-72
2022/12/21 08:43:52;;;;;;;;;;;;;;;-3.34;82.05;98291.64;1789615;79;20090;-72
2022/12/21 08:46:18;;;;;;;;;;;;;;;-3.29;81.95;98296.95;1765212;80;20115;-72
2022/12/21 08:48:46;;;;;;;;;;;;;;;-3.12;83.08;98286.23;1786680;79;20122;-72
2022/12/21 08:51:12;;;;;;;;;;;;;;;-2.80;83.39;98286.27;1783918;79;20188;-72
2022/12/21 08:53:38;;;;;;;;;;;;;;;-2.66;82.70;98288.84;1786455;79;20079;-72
2022/12/21 08:56:05;;;;;;;;;;;;;;;-2.61;82.12;98276.01;1796593;79;20092;-72
2022/12/21 08:58:31;;;;;;;;;;;;;;;-2.57;81.96;98269.17;1816572;78;20265;-72
2022/12/21 09:00:58;;;;;;;;;;;;;;;-2.50;81.98;98265.89;1778807;80;20087;-72
2022/12/21 09:03:29;;;;;;;;;;;;;;;-2.44;81.57;98260.00;1786370;79;20086;-72
2022/12/21 09:05:54;;;;;;;;;;;;;;;-2.40;80.52;98255.36;1783294;79;20084;-72
2022/12/21 09:08:21;;;;;;;;;;;;;;;-2.37;80.77;98245.03;1796874;79;20104;-72
2022/12/21 09:10:47;;;;;;;;;;;;;;;-2.32;80.79;98247.77;1802499;78;20113;-72
2022/12/21 09:13:13;;;;;;;;;;;;;;;-2.23;80.98;98241.92;1791324;78;20096;-72
2022/12/21 09:15:43;;;;;;;;;;;;;;;-2.11;80.90;98237.05;1795301;78;20109;-72
2022/12/21 09:18:10;;;;;;;;;;;;;;;-1.96;80.91;98231.34;1755008;81;20079;-72
2022/12/21 09:20:38;;;;;;;;;;;;;;;-1.80;80.92;98235.20;1767199;80;20101;-72
2022/12/21 09:23:04;;;;;;;;;;;;;;;-1.62;80.79;98216.98;1763066;79;20097;-72
2022/12/21 09:25:30;;;;;;;;;;;;;;;-1.47;80.15;98221.63;1788195;79;20085;-72
2022/12/21 09:27:59;;;;;;;;;;;;;;;-1.34;79.73;98217.58;1778486;79;20116;-72
2022/12/21 09:30:26;;;;;;;;;;;;;;;-1.22;79.58;98215.25;1784969;79;20161;-72
2022/12/21 09:32:53;;;;;;;;;;;;;;;-1.18;79.12;98207.49;1776217;79;20348;-72
2022/12/21 09:35:20;;;;;;;;;;;;;;;-1.02;79.24;98213.48;1767280;79;20116;-72
2022/12/21 09:37:46;;;;;;;;;;;;;;;-0.91;78.64;98211.52;1766624;81;20138;-72
2022/12/21 09:40:15;;;;;;;;;;;;;;;-0.85;78.81;98202.53;1770967;79;20114;-72
2022/12/21 09:42:57;;;;;;;;;;;;;;;-0.83;78.21;98196.95;1777851;80;20144;-72
2022/12/21 09:45:36;;;;;;;;;;;;;;;-0.75;77.96;98203.16;1802500;79;20094;-72
2022/12/21 09:48:04;;;;;;;;;;;;;;;-0.69;77.75;98199.80;1759143;79;20388;-72
2022/12/21 09:50:42;;;;;;;;;;;;;;;-0.64;76.86;98195.55;1772704;80;20091;-72
2022/12/21 09:53:32;;;;;;;;;;;;;;;-0.65;76.70;98194.22;1752474;80;20121;-72
2022/12/21 09:56:00;;;;;;;;;;;;;;;-0.65;76.38;98192.92;1759332;81;20085;-72
2022/12/21 09:58:42;;;;;;;;;;;;;;;-0.61;76.13;98200.83;1779394;79;20146;-72
2022/12/21 10:01:29;;;;;;;;;;;;;;;-0.59;76.56;98203.02;1784679;79;20322;-72
2022/12/21 10:04:11;;;;;;;;;;;;;;;-0.60;75.67;98196.48;1749311;79;20095;-72
2022/12/21 10:06:59;;;;;;;;;;;;;;;-0.54;76.15;98195.31;1769734;79;20473;-72
2022/12/21 10:09:29;;;;;;;;;;;;;;;-0.47;74.63;98191.06;1752872;81;20320;-72
2022/12/21 10:12:08;;;;;;;;;;;;;;;-0.43;75.74;98183.77;1782745;79;20099;-72
2022/12/21 10:14:44;;;;;;;;;;;;;;;-0.38;75.00;98179.95;1774949;79;20132;-72
2022/12/21 10:17:20;;;;;;;;;;;;;;;-0.36;75.46;98178.24;1756000;80;20099;-73
2022/12/21 10:19:56;;;;;;;;;;;;;;;-0.31;74.35;98185.30;1765089;79;20392;-72
2022/12/21 10:22:32;;;;;;;;;;;;;;;-0.26;74.75;98176.24;1768778;80;20146;-72
2022/12/21 10:25:01;;;;;;;;;;;;;;;-0.21;74.85;98162.87;1758323;80;20115;-73
2022/12/21 10:27:34;;;;;;;;;;;;;;;-0.07;74.96;98172.23;1759287;79;20091;-73
2022/12/21 10:30:01;;;;;;;;;;;;;;;0.02;75.06;98167.58;1795510;79;20090;-72
2022/12/21 10:32:31;;;;;;;;;;;;;;;0.11;74.44;98163.81;1777981;78;20112;-73
2022/12/21 10:35:01;;;;;;;;;;;;;;;0.22;74.76;98159.19;1772215;79;20321;-73
2022/12/21 10:37:28;;;;;;;;;;;;;;;0.28;73.51;98141.46;1763912;80;20149;-72
2022/12/21 10:39:56;;;;;;;;;;;;;;;0.34;73.17;98147.61;1774198;79;20096;-72
2022/12/21 10:42:26;;;;;;;;;;;;;;;0.45;73.18;98141.25;1764541;79;20118;-73
2022/12/21 10:44:53;;;;;;;;;;;;;;;0.85;73.53;98137.38;1785765;79;20354;-73
2022/12/21 10:47:22;;;;;;;;;;;;;;;1.32;73.75;98128.30;1782918;79;20116;-71
2022/12/21 10:50:07;;;;;;;;;;;;;;;2.12;70.61;98119.38;1785199;79;20345;-72
2022/12/21 10:52:44;;;;;;;;;;;;;;;3.09;70.55;98114.12;1766825;80;20077;-72
2022/12/21 10:55:24;;;;;;;;;;;;;;;4.04;64.51;98111.56;1765518;79;20091;-71
2022/12/21 10:57:55;;;;;;;;;;;;;;;4.98;67.09;98110.80;1793901;79;20322;-72
2022/12/21 11:00:27;;;;;;;;;;;;;;;5.66;63.96;98098.95;1760623;80;20123;-71
2022/12/21 11:03:02;;;;;;;;;;;;;;;6.02;62.00;98103.92;1775805;80;20085;-72
2022/12/21 11:05:32;;;;;;;;;;;;;;;6.24;60.61;98093.66;1768062;79;20088;-72
2022/12/21 11:08:25;;;;;;;;;;;;;;;7.00;59.17;98085.73;1788890;80;20116;-72
2022/12/21 11:10:55;;;;;;;;;;;;;;;7.71;57.42;98083.35;1786484;79;20175;-72
2022/12/21 11:13:25;;;;;;;;;;;;;;;8.41;58.62;98073.77;1783853;79;20134;-73
2022/12/21 11:15:57;;;;;;;;;;;;;;;8.90;55.96;98072.37;1756367;80;20172;-72
2022/12/21 11:18:42;;;;;;;;;;;;;;;9.24;52.76;98077.34;1771973;79;20076;-72
2022/12/21 11:21:27;;;;;;;;;;;;;;;9.41;52.96;98080.05;1780028;81;20101;-72
2022/12/21 11:23:57;;;;;;;;;;;;;;;9.77;49.97;98066.84;1781538;79;20133;-73
2022/12/21 11:26:26;;;;;;;;;;;;;;;10.03;49.27;98062.20;1785332;79;20105;-72
2022/12/21 11:29:09;;;;;;;;;;;;;;;10.57;48.07;98068.29;1756679;79;20365;-73
2022/12/21 11:31:36;;;;;;;;;;;;;;;10.81;49.70;98063.20;1780017;79;20085;-72
2022/12/21 11:34:03;;;;;;;;;;;;;;;11.25;50.54;98068.53;1772175;80;20106;-72
2022/12/21 11:36:29;;;;;;;;;;;;;;;11.37;45.37;98060.17;1778574;79;20096;-72
2022/12/21 11:38:55;;;;;;;;;;;;;;;11.53;43.06;98059.22;1761160;80;20115;-72
2022/12/21 11:41:27;;;;;;;;;;;;;;;11.01;44.68;98051.13;1768251;79;20124;-72
2022/12/21 11:43:54;;;;;;;;;;;;;;;10.96;44.09;98055.22;1781630;79;20319;-72
2022/12/21 11:46:42;;;;;;;;;;;;;;;10.34;42.58;98050.37;1780624;79;20136;-72
2022/12/21 11:49:38;;;;;;;;;;;;;;;9.34;44.49;98040.52;1784327;80;20076;-72
2022/12/21 11:52:14;;;;;;;;;;;;;;;9.55;46.85;98037.41;1746424;81;20072;-72
2022/12/21 11:55:02;;;;;;;;;;;;;;;9.75;46.27;98041.73;1759301;79;20325;-73
2022/12/21 11:57:48;;;;;;;;;;;;;;;9.97;43.97;98048.25;1780649;79;20097;-73
2022/12/21 12:00:17;;;;;;;;;;;;;;;10.13;44.47;98031.51;1765687;81;20077;-70
2022/12/21 12:03:02;;;;;;;;;;;;;;;9.90;44.32;98024.59;1780226;81;20105;-73
2022/12/21 12:05:35;;;;;;;;;;;;;;;10.32;42.29;98020.37;1784722;79;20340;-71
2022/12/21 12:08:14;;;;;;;;;;;;;;;10.26;42.75;98014.82;1773789;80;20213;-71
2022/12/21 12:10:50;;;;;;;;;;;;;;;10.72;41.25;98011.33;1775884;79;20152;-71
2022/12/21 12:13:32;;;;;;;;;;;;;;;11.26;42.73;98006.14;1781204;80;20159;-71
2022/12/21 12:16:23;;;;;;;;;;;;;;;11.38;40.80;98002.20;1752776;79;20099;-71
2022/12/21 12:19:05;;;;;;;;;;;;;;;11.22;39.58;97992.56;1776978;79;20115;-71
2022/12/21 12:21:55;;;;;;;;;;;;;;;11.06;38.84;97992.17;1798880;79;20116;-71
2022/12/21 12:24:40;;;;;;;;;;;;;;;10.64;39.20;97993.45;1779342;79;20172;-71
2022/12/21 12:27:28;;;;;;;;;;;;;;;10.51;40.69;97996.92;1779689;80;20402;-72
2022/12/21 12:30:10;;;;;;;;;;;;;;;10.60;40.06;97984.73;1778568;80;20146;-71
2022/12/21 12:32:46;;;;;;;;;;;;;;;10.30;42.47;97997.45;1781628;80;20121;-72
2022/12/21 12:35:35;;;;;;;;;;;;;;;9.76;39.99;97987.03;1789605;79;20121;-72
2022/12/21 12:38:23;;;;;;;;;;;;;;;8.89;40.99;97997.92;1763154;79;20128;-71
2022/12/21 12:41:02;;;;;;;;;;;;;;;7.90;42.74;97996.85;1786444;79;20085;-71
2022/12/21 12:43:38;;;;;;;;;;;;;;;7.11;44.24;97997.28;1787453;79;20132;-71
2022/12/21 12:46:14;;;;;;;;;;;;;;;6.34;44.58;98005.38;1765770;79;20349;-72
2022/12/21 12:48:49;;;;;;;;;;;;;;;5.72;46.11;98007.79;1764640;81;20969;-73
2022/12/21 12:51:24;;;;;;;;;;;;;;;5.30;47.30;98003.75;1771835;79;20115;-73
2022/12/21 12:54:06;;;;;;;;;;;;;;;5.04;48.49;98008.77;1774852;79;20127;-73